Eastman, Canada
Current Conditions -  °F | °C
As of 2:55 AM on Sunday 26 Oct 2014 (Local Time) from KEFK Reporting Station
Broken Clouds Broken Clouds  
Wind Chill: 43°   Ceiling: 12000
Heat Index: 46°   Visibility: 10mi
Dew Point: 42°   Wind: 7mph
Humidity: 84%   Direction: 260°W
Pressure: 29.41"   Gusts: NA
Location:  45.3°N, 72.32°W
Report Text: KEFK 260655Z AUTO 26006KT 10SM SCT040 SCT047 BKN120 08/05 A2941 RMK AO2 T00790053
Loading
Personal Weather Stations






























Interactive Weather Map New forecast layout! Learn more

10-Day Weather Forecast

Advertisements
Track Severe Weather on mobile